Hauptseite
METAR-TAF:

METAR-TAF

Flughäfen :

Flughafen Amami

Amami, Japan

Breite: 28-26N, Länge: 129-43E, Höhe: 4 m

Beobachtung

Neuester Wetterbericht von vor 40 Minuten, um 23:10 UTC
Wind 6 kt aus Südost
Temperatur 24°C
Luftfeuchtigkeit 100%
Luftdruck 1013 hPa
Sichtweite: 2500 m
Leicht bewölkt in der Höhe von 200 ft
Aufgelockert bewölkt in der Höhe von 500 ft
Durchbrochene Bewölkung in der Höhe von 1000 ft
Regenschauer

METAR: RJKA 252310Z 13006KT 2500 R03/2000N -SHRA FEW002 SCT005 BKN010 24/24 Q1013 RMK 1ST002 3ST005 6CU010 A2992

Zeit: 08:50 (23:50 UTC)


TAF: fehlend

Wetterbeobachtungen und Prognosen von mehr als 4000 Flughäfen (METAR und TAF Bericht).

Die verfügbaren Stationen werden durch gelbe und rote Markierungen auf der Karte dargestellt.

Führen Sie die Maus auf sie, um den Namen der Station zu sehen.

Darauf klicken, um die Beobachtung von Wetterbeobachtungen und Prognosen zu sehen.

Um die Karte zu ändern : klicken Sie auf den grünen Tasten mit einem schwarzen Kreuz Zum Vergrößern, auf den grünen Button mit einem Gedankenstrich zu verkleinern, oder auf die grünen Pfeile für benachbarte Karten.


METAR-TAF: